createdAt,value
2023-02-12T00:01:14.202Z,14.32
2023-02-12T00:04:00.891Z,15.30
2023-02-12T00:06:47.407Z,14.55
2023-02-12T00:09:35.232Z,14.77
2023-02-12T00:12:21.890Z,14.23
2023-02-12T00:15:09.525Z,14.18
2023-02-12T00:17:56.194Z,14.98
2023-02-12T00:20:42.709Z,14.77
2023-02-12T00:23:29.681Z,14.85
2023-02-12T00:26:19.133Z,13.35
2023-02-12T00:29:08.770Z,14.73
2023-02-12T00:31:55.282Z,14.13
2023-02-12T00:34:41.946Z,14.52
2023-02-12T00:37:28.319Z,13.82
2023-02-12T00:40:14.902Z,14.20
2023-02-12T00:43:02.773Z,14.68
2023-02-12T00:45:49.288Z,15.00
2023-02-12T00:48:36.523Z,14.18
2023-02-12T00:51:23.254Z,13.75
2023-02-12T00:54:09.461Z,14.52
2023-02-12T00:56:56.912Z,13.98
2023-02-12T00:59:44.976Z,14.73
2023-02-12T01:02:31.655Z,14.80
2023-02-12T01:05:19.550Z,14.95
2023-02-12T01:08:06.385Z,15.20
2023-02-12T01:10:57.630Z,15.00
2023-02-12T01:13:44.279Z,14.80
2023-02-12T01:16:36.505Z,14.55
2023-02-12T01:19:23.568Z,14.85
2023-02-12T01:22:10.301Z,15.52
2023-02-12T01:24:57.191Z,15.38
2023-02-12T01:27:44.056Z,14.75
2023-02-12T01:30:31.889Z,15.00
2023-02-12T01:33:21.032Z,15.57
2023-02-12T01:36:08.834Z,16.52
2023-02-12T01:38:55.581Z,14.38
2023-02-12T01:41:44.619Z,15.13
2023-02-12T01:44:32.581Z,16.05
2023-02-12T01:47:19.650Z,14.05
2023-02-12T01:50:10.996Z,15.27
2023-02-12T01:52:59.775Z,14.00
2023-02-12T01:55:46.656Z,14.77
2023-02-12T01:58:38.827Z,16.30
2023-02-12T02:01:28.474Z,15.68
2023-02-12T02:04:18.333Z,15.90
2023-02-12T02:07:08.186Z,16.55
2023-02-12T02:09:57.529Z,17.83
2023-02-12T02:13:05.210Z,16.80
2023-02-12T02:15:56.856Z,15.80
2023-02-12T02:18:48.167Z,17.17
2023-02-12T02:21:52.490Z,16.52
2023-02-12T02:24:59.161Z,16.95
2023-02-12T02:27:57.354Z,16.30
2023-02-12T02:30:51.730Z,18.50
2023-02-12T02:33:46.224Z,17.27
2023-02-12T02:36:47.882Z,16.08
2023-02-12T02:39:48.492Z,16.35
2023-02-12T02:42:40.207Z,16.75
2023-02-12T02:45:31.511Z,16.83
2023-02-12T02:48:23.345Z,16.00
2023-02-12T02:51:15.253Z,16.15
2023-02-12T02:54:08.932Z,16.45
2023-02-12T02:57:00.999Z,17.17
2023-02-12T02:59:54.406Z,16.50
2023-02-12T03:02:44.901Z,15.57
2023-02-12T03:08:27.738Z,15.43
2023-02-12T03:11:18.864Z,17.85
2023-02-12T03:14:11.225Z,16.52
2023-02-12T03:17:03.636Z,16.40
2023-02-12T03:19:57.989Z,16.92
2023-02-12T03:22:52.382Z,15.70
2023-02-12T03:25:45.520Z,16.50
2023-02-12T03:28:35.327Z,16.40
2023-02-12T03:31:43.825Z,16.63
2023-02-12T03:34:42.994Z,17.08
2023-02-12T03:37:34.661Z,16.05
2023-02-12T03:40:29.503Z,16.58
2023-02-12T03:43:28.186Z,15.80
2023-02-12T03:46:20.979Z,15.60
2023-02-12T03:49:12.486Z,16.02
2023-02-12T03:51:59.617Z,16.77
2023-02-12T03:54:46.299Z,16.38
2023-02-12T03:57:39.452Z,15.73
2023-02-12T04:00:26.670Z,15.23
2023-02-12T04:03:13.276Z,15.82
2023-02-12T04:05:59.779Z,15.13
2023-02-12T04:08:46.272Z,14.95
2023-02-12T04:11:49.125Z,15.05
2023-02-12T04:14:45.351Z,16.02
2023-02-12T04:17:41.356Z,15.43
2023-02-12T04:20:40.549Z,15.23
2023-02-12T04:23:44.872Z,15.88
2023-02-12T04:26:38.911Z,16.13
2023-02-12T04:29:33.860Z,16.20
2023-02-12T04:32:29.193Z,15.43
2023-02-12T04:35:21.597Z,15.18
2023-02-12T04:38:16.498Z,16.13
2023-02-12T04:41:05.738Z,15.18
2023-02-12T04:43:52.346Z,15.18
2023-02-12T04:46:39.111Z,14.57
2023-02-12T04:49:27.533Z,14.77
2023-02-12T04:52:14.446Z,14.45
2023-02-12T04:55:00.952Z,15.48
2023-02-12T04:57:48.028Z,14.70
2023-02-12T05:00:34.836Z,16.98
2023-02-12T05:03:21.425Z,14.68
2023-02-12T05:06:10.693Z,14.73
2023-02-12T05:08:57.676Z,14.77
2023-02-12T05:11:45.029Z,15.43
2023-02-12T05:14:31.576Z,15.73
2023-02-12T05:17:18.166Z,15.15
2023-02-12T05:20:05.619Z,15.45
2023-02-12T05:22:56.390Z,15.27
2023-02-12T05:25:42.583Z,14.70
2023-02-12T05:28:30.338Z,14.70
2023-02-12T05:31:21.262Z,13.95
2023-02-12T05:34:10.973Z,14.68
2023-02-12T05:36:57.509Z,14.30
2023-02-12T05:39:45.583Z,14.20
2023-02-12T05:42:32.122Z,15.60
2023-02-12T05:45:18.548Z,14.88
2023-02-12T05:48:05.513Z,15.18
2023-02-12T05:50:53.270Z,14.93
2023-02-12T05:53:41.264Z,16.05
2023-02-12T05:56:30.124Z,15.68
2023-02-12T05:59:19.181Z,15.52
2023-02-12T06:02:05.816Z,14.75
2023-02-12T06:04:52.616Z,15.82
2023-02-12T06:07:39.074Z,15.45
2023-02-12T06:10:25.912Z,15.45
2023-02-12T06:13:13.840Z,15.25
2023-02-12T06:16:01.295Z,15.48
2023-02-12T06:18:48.338Z,21.20
2023-02-12T06:21:35.004Z,18.02
2023-02-12T06:24:21.244Z,15.25
2023-02-12T06:27:07.826Z,14.75
2023-02-12T06:29:55.706Z,15.20
2023-02-12T06:32:42.222Z,14.23
2023-02-12T06:35:29.509Z,13.98
2023-02-12T06:38:16.025Z,14.80
2023-02-12T06:41:03.501Z,15.23
2023-02-12T06:43:50.739Z,15.00
2023-02-12T06:46:38.847Z,14.65
2023-02-12T06:49:25.978Z,15.27
2023-02-12T06:52:14.104Z,17.65
2023-02-12T06:55:00.898Z,16.08
2023-02-12T06:57:47.691Z,15.32
2023-02-12T07:00:34.260Z,14.43
2023-02-12T07:03:22.138Z,15.45
2023-02-12T07:06:10.058Z,15.70
2023-02-12T07:08:56.892Z,15.38
2023-02-12T07:11:43.454Z,15.93
2023-02-12T07:14:29.911Z,15.57
2023-02-12T07:17:17.080Z,14.95
2023-02-12T07:20:05.183Z,15.13
2023-02-12T07:22:51.822Z,17.52
2023-02-12T07:25:38.420Z,18.02
2023-02-12T07:28:25.475Z,26.10
2023-02-12T07:31:15.684Z,15.88
2023-02-12T07:36:50.393Z,17.33
2023-02-12T07:39:36.920Z,15.70
2023-02-12T07:42:23.571Z,14.57
2023-02-12T07:45:11.168Z,15.70
2023-02-12T07:47:57.843Z,15.95
2023-02-12T07:50:44.399Z,15.50
2023-02-12T07:53:32.518Z,16.15
2023-02-12T07:56:21.901Z,14.65
2023-02-12T07:59:11.583Z,15.87
2023-02-12T08:01:58.371Z,19.95
2023-02-12T08:04:45.071Z,15.50
2023-02-12T08:07:31.490Z,15.55
2023-02-12T08:10:22.285Z,15.05
2023-02-12T08:13:08.741Z,15.93
2023-02-12T08:16:01.322Z,16.33
2023-02-12T08:18:48.560Z,15.80
2023-02-12T08:21:35.549Z,15.27
2023-02-12T08:24:22.878Z,15.65
2023-02-12T08:27:10.936Z,15.82
2023-02-12T08:29:57.663Z,15.48
2023-02-12T08:32:44.257Z,15.05
2023-02-12T08:35:30.797Z,15.18
2023-02-12T08:38:17.382Z,15.10
2023-02-12T08:41:05.061Z,14.30
2023-02-12T08:43:55.068Z,14.65
2023-02-12T08:46:45.997Z,14.00
2023-02-12T08:49:32.692Z,13.38
2023-02-12T08:52:19.602Z,14.38
2023-02-12T08:55:06.210Z,14.20
2023-02-12T08:57:57.826Z,13.65
2023-02-12T09:00:45.972Z,13.52
2023-02-12T09:03:32.616Z,14.80
2023-02-12T09:06:21.048Z,13.18
2023-02-12T09:09:08.230Z,13.82
2023-02-12T09:11:54.652Z,13.70
2023-02-12T09:14:40.987Z,13.98
2023-02-12T09:17:29.352Z,14.90
2023-02-12T09:20:16.310Z,14.48
2023-02-12T09:23:02.677Z,13.23
2023-02-12T09:25:49.134Z,14.40
2023-02-12T09:28:36.555Z,15.15
2023-02-12T09:31:26.533Z,16.20
2023-02-12T09:34:14.522Z,13.98
2023-02-12T09:37:00.942Z,14.65
2023-02-12T09:39:49.561Z,14.40
2023-02-12T09:45:37.602Z,14.27
2023-02-12T09:48:40.362Z,14.48
2023-02-12T09:51:30.205Z,14.55
2023-02-12T09:54:20.442Z,14.98
2023-02-12T09:57:15.928Z,16.85
2023-02-12T10:00:06.624Z,15.45
2023-02-12T10:02:55.009Z,15.07
2023-02-12T10:05:45.967Z,14.43
2023-02-12T10:08:50.972Z,14.55
2023-02-12T10:11:48.341Z,15.52
2023-02-12T10:15:03.192Z,14.60
2023-02-12T10:17:59.182Z,14.02
2023-02-12T10:20:55.944Z,14.60
2023-02-12T10:24:01.989Z,14.68
2023-02-12T10:26:50.519Z,14.45
2023-02-12T10:29:42.405Z,13.70
2023-02-12T10:32:32.864Z,14.70
2023-02-12T10:35:22.054Z,13.38
2023-02-12T10:38:17.067Z,13.98
2023-02-12T10:41:05.213Z,14.80
2023-02-12T10:43:51.755Z,13.65
2023-02-12T10:46:38.656Z,14.07
2023-02-12T10:49:25.100Z,14.43
2023-02-12T10:52:16.401Z,14.15
2023-02-12T10:55:03.019Z,13.48
2023-02-12T10:57:51.364Z,13.77
2023-02-12T11:00:39.617Z,12.70
2023-02-12T11:03:30.721Z,12.55
2023-02-12T11:06:20.011Z,13.15
2023-02-12T11:09:06.474Z,12.25
2023-02-12T11:11:53.130Z,13.38
2023-02-12T11:14:43.375Z,13.30
2023-02-12T11:17:35.818Z,13.52
2023-02-12T11:20:26.077Z,13.80
2023-02-12T11:23:26.469Z,13.50
2023-02-12T11:29:20.345Z,12.52
2023-02-12T11:32:12.315Z,12.23
2023-02-12T11:35:07.040Z,12.50
2023-02-12T11:37:55.937Z,12.38
2023-02-12T11:40:47.331Z,12.55
2023-02-12T11:43:38.378Z,12.13
2023-02-12T11:46:27.789Z,13.25
2023-02-12T11:49:22.381Z,12.43
2023-02-12T11:52:18.423Z,12.40
2023-02-12T11:55:09.538Z,12.27
2023-02-12T11:58:04.469Z,12.45
2023-02-12T12:00:56.050Z,15.23
2023-02-12T12:03:50.707Z,12.52
2023-02-12T12:06:44.368Z,12.82
2023-02-12T12:09:36.998Z,11.52
2023-02-12T12:12:30.372Z,11.90
2023-02-12T12:15:41.216Z,11.70
2023-02-12T12:18:52.989Z,11.45
2023-02-12T12:21:46.720Z,12.25
2023-02-12T12:24:43.014Z,11.75
2023-02-12T12:27:54.001Z,11.93
2023-02-12T12:30:53.881Z,12.57
2023-02-12T12:33:44.397Z,12.52
2023-02-12T12:39:48.389Z,11.10
2023-02-12T12:43:00.816Z,12.00
2023-02-12T12:46:29.482Z,11.60
2023-02-12T12:49:32.045Z,12.07
2023-02-12T12:52:46.241Z,12.20
2023-02-12T12:55:52.717Z,11.93
2023-02-12T12:58:54.075Z,12.98
2023-02-12T13:01:57.561Z,12.25
2023-02-12T13:05:00.536Z,12.60
2023-02-12T13:08:00.082Z,11.23
2023-02-12T13:10:51.663Z,11.88
2023-02-12T13:13:42.772Z,13.57
2023-02-12T13:16:34.792Z,12.75
2023-02-12T13:19:33.615Z,12.25
2023-02-12T13:22:29.351Z,12.15
2023-02-12T13:25:25.927Z,11.30
2023-02-12T13:28:17.097Z,10.75
2023-02-12T13:31:30.018Z,10.00
2023-02-12T13:34:18.351Z,10.43
2023-02-12T13:37:07.641Z,10.60
2023-02-12T13:39:54.270Z,10.32
2023-02-12T13:42:49.056Z,10.95
2023-02-12T13:45:45.705Z,10.20
2023-02-12T13:48:43.036Z,11.05
2023-02-12T13:51:40.716Z,10.55
2023-02-12T13:54:39.114Z,11.25
2023-02-12T13:57:25.338Z,10.48
2023-02-12T14:00:50.746Z,10.90
2023-02-12T14:03:39.842Z,10.20
2023-02-12T14:06:26.453Z,9.63
2023-02-12T14:09:23.956Z,10.38
2023-02-12T14:12:14.537Z,9.98
2023-02-12T14:15:07.824Z,10.48
2023-02-12T14:17:56.582Z,9.32
2023-02-12T14:20:44.770Z,9.85
2023-02-12T14:23:34.878Z,9.60
2023-02-12T14:26:23.152Z,10.30
2023-02-12T14:29:21.014Z,10.75
2023-02-12T14:33:00.425Z,10.27
2023-02-12T14:35:51.093Z,10.05
2023-02-12T14:39:02.836Z,10.85
2023-02-12T14:41:52.238Z,10.75
2023-02-12T14:44:46.033Z,10.82
2023-02-12T14:47:50.822Z,11.23
2023-02-12T14:50:42.871Z,11.73
2023-02-12T14:53:34.020Z,11.88
2023-02-12T14:56:22.864Z,11.05
2023-02-12T14:59:18.022Z,11.45
2023-02-12T15:02:07.313Z,12.32
2023-02-12T15:04:57.518Z,11.95
2023-02-12T15:07:48.880Z,11.85
2023-02-12T15:10:42.538Z,11.32
2023-02-12T15:13:34.656Z,11.60
2023-02-12T15:16:30.871Z,12.00
2023-02-12T15:19:32.429Z,12.65
2023-02-12T15:22:22.545Z,11.75
2023-02-12T15:25:16.537Z,11.93
2023-02-12T15:28:18.816Z,10.68
2023-02-12T15:31:10.419Z,12.63
2023-02-12T15:33:59.173Z,12.23
2023-02-12T15:36:47.033Z,12.50
2023-02-12T15:39:40.749Z,12.50
2023-02-12T15:42:30.770Z,11.23
2023-02-12T15:45:23.915Z,11.43
2023-02-12T15:48:17.254Z,12.43
2023-02-12T15:51:11.097Z,12.35
2023-02-12T15:54:01.401Z,11.98
2023-02-12T15:56:48.472Z,13.25
2023-02-12T15:59:35.025Z,11.75
2023-02-12T16:02:27.337Z,13.57
2023-02-12T16:05:17.673Z,12.82
2023-02-12T16:08:04.554Z,12.75
2023-02-12T16:10:54.240Z,12.35
2023-02-12T16:13:45.180Z,13.05
2023-02-12T16:16:40.202Z,13.38
2023-02-12T16:19:29.786Z,13.13
2023-02-12T16:22:19.449Z,13.68
2023-02-12T16:25:16.749Z,18.45
2023-02-12T16:28:06.208Z,15.45
2023-02-12T16:30:53.563Z,13.43
2023-02-12T16:33:47.786Z,13.95
2023-02-12T16:36:35.384Z,15.18
2023-02-12T16:40:05.097Z,12.52
2023-02-12T16:42:59.462Z,13.73
2023-02-12T16:45:46.699Z,12.93
2023-02-12T16:48:39.300Z,13.38
2023-02-12T16:51:28.925Z,15.55
2023-02-12T16:54:31.262Z,14.73
2023-02-12T16:57:17.997Z,14.05
2023-02-12T17:00:05.146Z,13.90
2023-02-12T17:02:51.726Z,14.25
2023-02-12T17:05:38.235Z,13.18
2023-02-12T17:08:25.734Z,12.55
2023-02-12T17:11:14.183Z,13.65
2023-02-12T17:14:00.357Z,16.05
2023-02-12T17:16:47.520Z,17.30
2023-02-12T17:19:34.857Z,15.02
2023-02-12T17:22:24.183Z,14.93
2023-02-12T17:25:11.143Z,16.33
2023-02-12T17:27:59.600Z,16.27
2023-02-12T17:30:46.600Z,16.25
2023-02-12T17:33:33.330Z,15.55
2023-02-12T17:36:20.172Z,16.17
2023-02-12T17:39:08.833Z,15.93
2023-02-12T17:41:55.484Z,14.18
2023-02-12T17:44:43.361Z,16.55
2023-02-12T17:47:31.344Z,15.93
2023-02-12T17:50:19.483Z,14.90
2023-02-12T17:53:06.304Z,15.95
2023-02-12T17:55:53.007Z,16.35
2023-02-12T17:58:40.482Z,15.70
2023-02-12T18:01:28.792Z,16.02
2023-02-12T18:04:15.676Z,16.42
2023-02-12T18:07:02.413Z,16.58
2023-02-12T18:09:49.353Z,17.85
2023-02-12T18:12:36.477Z,16.73
2023-02-12T18:15:22.986Z,16.50
2023-02-12T18:18:11.428Z,16.65
2023-02-12T18:20:58.208Z,16.58
2023-02-12T18:23:45.141Z,16.25
2023-02-12T18:26:32.442Z,16.65
2023-02-12T18:29:19.022Z,16.13
2023-02-12T18:32:05.920Z,16.83
2023-02-12T18:34:54.010Z,18.63
2023-02-12T18:37:43.239Z,17.10
2023-02-12T18:40:30.002Z,17.05
2023-02-12T18:43:16.580Z,17.00
2023-02-12T18:46:07.366Z,17.50
2023-02-12T18:48:54.881Z,17.35
2023-02-12T18:51:42.765Z,17.17
2023-02-12T18:54:29.118Z,18.55
2023-02-12T18:57:15.963Z,17.25
2023-02-12T19:00:02.900Z,18.02
2023-02-12T19:02:49.413Z,18.65
2023-02-12T19:05:36.218Z,16.30
2023-02-12T19:08:24.096Z,16.88
2023-02-12T19:11:11.636Z,18.05
2023-02-12T19:13:58.696Z,17.50
2023-02-12T19:16:46.081Z,16.52
2023-02-12T19:19:32.791Z,17.42
2023-02-12T19:22:19.595Z,17.90
2023-02-12T19:25:08.209Z,17.10
2023-02-12T19:27:54.980Z,18.35
2023-02-12T19:30:42.646Z,17.13
2023-02-12T19:33:29.305Z,18.00
2023-02-12T19:36:18.958Z,17.55
2023-02-12T19:39:06.467Z,16.70
2023-02-12T19:41:56.223Z,16.45
2023-02-12T19:44:42.999Z,16.13
2023-02-12T19:47:29.596Z,16.33
2023-02-12T19:50:16.113Z,16.42
2023-02-12T19:53:02.824Z,17.77
2023-02-12T19:55:49.405Z,17.60
2023-02-12T19:58:37.636Z,17.50
2023-02-12T20:01:24.770Z,16.98
2023-02-12T20:04:13.347Z,16.55
2023-02-12T20:06:59.923Z,18.10
2023-02-12T20:09:46.591Z,18.27
2023-02-12T20:12:33.579Z,16.80
2023-02-12T20:15:25.456Z,18.55
2023-02-12T20:18:12.588Z,18.90
2023-02-12T20:20:59.521Z,18.55
2023-02-12T20:23:46.078Z,18.88
2023-02-12T20:26:33.849Z,18.23
2023-02-12T20:29:20.731Z,18.67
2023-02-12T20:32:09.132Z,18.55
2023-02-12T20:34:56.162Z,18.65
2023-02-12T20:37:45.714Z,16.92
2023-02-12T20:40:32.597Z,18.95
2023-02-12T20:43:19.603Z,18.33
2023-02-12T20:46:08.040Z,18.15
2023-02-12T20:48:57.562Z,15.95
2023-02-12T20:51:45.368Z,17.45
2023-02-12T20:54:37.987Z,18.00
2023-02-12T20:57:24.693Z,17.00
2023-02-12T21:00:12.587Z,16.88
2023-02-12T21:03:03.783Z,17.15
2023-02-12T21:05:51.945Z,17.77
2023-02-12T21:08:39.626Z,18.00
2023-02-12T21:11:28.003Z,18.90
2023-02-12T21:14:24.123Z,17.50
2023-02-12T21:17:11.512Z,17.77
2023-02-12T21:19:58.480Z,18.20
2023-02-12T21:22:46.907Z,17.58
2023-02-12T21:25:33.399Z,18.40
2023-02-12T21:28:20.007Z,19.45
2023-02-12T21:31:08.921Z,17.52
2023-02-12T21:33:56.925Z,18.52
2023-02-12T21:36:46.350Z,18.23
2023-02-12T21:39:34.542Z,17.15
2023-02-12T21:42:20.903Z,15.88
2023-02-12T21:45:08.183Z,16.05
2023-02-12T21:47:54.744Z,15.77
2023-02-12T21:50:41.828Z,15.85
2023-02-12T21:53:30.450Z,17.23
2023-02-12T21:56:19.152Z,16.42
2023-02-12T21:59:06.603Z,16.55
2023-02-12T22:01:55.188Z,16.50
2023-02-12T22:04:42.010Z,15.82
2023-02-12T22:07:28.221Z,17.20
2023-02-12T22:10:15.081Z,17.27
2023-02-12T22:13:02.805Z,17.67
2023-02-12T22:15:49.016Z,17.42
2023-02-12T22:18:35.812Z,19.20
2023-02-12T22:21:23.615Z,17.75
2023-02-12T22:24:12.694Z,18.42
2023-02-12T22:26:59.129Z,18.50
2023-02-12T22:29:47.063Z,18.90
2023-02-12T22:32:35.904Z,19.00
2023-02-12T22:35:22.249Z,19.17
2023-02-12T22:38:08.786Z,18.98
2023-02-12T22:40:55.934Z,19.95
2023-02-12T22:43:42.871Z,19.83
2023-02-12T22:46:30.783Z,18.88
2023-02-12T22:49:17.803Z,19.33
2023-02-12T22:52:04.094Z,19.92
2023-02-12T22:54:50.737Z,19.85
2023-02-12T22:57:37.354Z,21.13
2023-02-12T23:03:42.388Z,18.55
2023-02-12T23:06:31.296Z,19.60
2023-02-12T23:09:19.744Z,17.80
2023-02-12T23:12:07.907Z,20.95
2023-02-12T23:14:54.518Z,17.92
2023-02-12T23:17:41.018Z,19.25
2023-02-12T23:20:28.808Z,19.40
2023-02-12T23:23:15.396Z,19.35
2023-02-12T23:26:02.021Z,18.23
2023-02-12T23:28:48.832Z,19.10
2023-02-12T23:31:35.363Z,18.67
2023-02-12T23:34:21.848Z,19.38
2023-02-12T23:37:09.770Z,18.58
2023-02-12T23:39:56.268Z,18.10
2023-02-12T23:42:42.806Z,18.70
2023-02-12T23:45:30.098Z,18.67
2023-02-12T23:48:16.667Z,18.65
2023-02-12T23:51:03.288Z,18.65
2023-02-12T23:53:51.119Z,18.35
2023-02-12T23:56:37.569Z,15.82
2023-02-12T23:59:25.854Z,17.52
